createdAt,value
2024-01-11T00:00:06.646Z,0.00
2024-01-11T00:01:06.684Z,0.00
2024-01-11T00:02:06.712Z,0.00
2024-01-11T00:03:06.638Z,0.00
2024-01-11T00:04:06.656Z,0.00
2024-01-11T00:05:06.659Z,0.00
2024-01-11T00:06:06.727Z,0.00
2024-01-11T00:07:06.723Z,0.00
2024-01-11T00:08:06.639Z,0.00
2024-01-11T00:09:06.598Z,0.00
2024-01-11T00:10:06.591Z,0.00
2024-01-11T00:11:06.618Z,0.00
2024-01-11T00:12:06.585Z,0.00
2024-01-11T00:13:06.578Z,0.00
2024-01-11T00:14:06.659Z,0.00
2024-01-11T00:15:06.615Z,0.00
2024-01-11T00:16:06.584Z,0.00
2024-01-11T00:17:06.571Z,0.00
2024-01-11T00:18:06.704Z,0.00
2024-01-11T00:19:06.657Z,0.00
2024-01-11T00:20:06.578Z,0.00
2024-01-11T00:21:06.539Z,0.00
2024-01-11T00:22:06.532Z,0.00
2024-01-11T00:23:06.548Z,0.00
2024-01-11T00:24:06.537Z,0.00
2024-01-11T00:25:06.523Z,0.00
2024-01-11T00:26:06.522Z,0.00
2024-01-11T00:27:06.503Z,0.00
2024-01-11T00:28:06.540Z,0.00
2024-01-11T00:29:06.536Z,0.00
2024-01-11T00:30:06.516Z,0.00
2024-01-11T00:31:06.521Z,0.00
2024-01-11T00:32:06.541Z,0.00
2024-01-11T00:33:06.632Z,0.00
2024-01-11T00:34:06.493Z,0.00
2024-01-11T00:35:06.473Z,0.00
2024-01-11T00:36:06.454Z,0.00
2024-01-11T00:37:06.458Z,0.00
2024-01-11T00:38:06.468Z,0.00
2024-01-11T00:39:06.438Z,0.00
2024-01-11T00:40:06.439Z,0.00
2024-01-11T00:41:06.447Z,0.00
2024-01-11T00:42:06.433Z,0.00
2024-01-11T00:43:06.422Z,0.00
2024-01-11T00:44:06.463Z,0.00
2024-01-11T00:45:06.412Z,0.00
2024-01-11T00:46:06.411Z,0.00
2024-01-11T00:47:06.453Z,0.00
2024-01-11T00:48:06.521Z,0.00
2024-01-11T00:49:06.470Z,0.00
2024-01-11T00:50:06.420Z,0.00
2024-01-11T00:51:06.381Z,0.00
2024-01-11T00:52:06.383Z,0.00
2024-01-11T00:53:06.399Z,0.00
2024-01-11T00:54:06.378Z,0.00
2024-01-11T00:55:06.361Z,0.00
2024-01-11T00:56:06.374Z,0.00
2024-01-11T00:57:06.350Z,0.00
2024-01-11T00:58:06.341Z,0.00
2024-01-11T00:59:06.356Z,0.00
2024-01-11T01:00:06.334Z,0.00
2024-01-11T01:01:06.353Z,0.00
2024-01-11T01:02:06.361Z,0.00
2024-01-11T01:03:06.314Z,0.00
2024-01-11T01:04:06.355Z,0.00
2024-01-11T01:05:06.343Z,0.00
2024-01-11T01:06:06.410Z,0.00
2024-01-11T01:07:06.302Z,0.00
2024-01-11T01:08:06.304Z,0.00
2024-01-11T01:09:06.287Z,0.00
2024-01-11T01:10:06.298Z,0.00
2024-01-11T01:11:06.343Z,0.00
2024-01-11T01:12:06.270Z,0.00
2024-01-11T01:13:06.266Z,0.00
2024-01-11T01:14:06.467Z,0.00
2024-01-11T01:15:06.252Z,0.00
2024-01-11T01:16:06.251Z,0.00
2024-01-11T01:17:06.259Z,0.00
2024-01-11T01:18:06.472Z,0.00
2024-01-11T01:19:06.339Z,0.00
2024-01-11T01:20:06.319Z,0.00
2024-01-11T01:21:06.232Z,0.00
2024-01-11T01:22:06.222Z,0.00
2024-01-11T01:23:06.243Z,0.00
2024-01-11T01:24:06.223Z,0.00
2024-01-11T01:25:06.252Z,0.00
2024-01-11T01:26:07.733Z,0.00
2024-01-11T01:27:06.196Z,0.00
2024-01-11T01:28:06.188Z,0.00
2024-01-11T01:29:06.253Z,0.00
2024-01-11T01:30:06.202Z,0.00
2024-01-11T01:31:06.212Z,0.00
2024-01-11T01:32:06.206Z,0.00
2024-01-11T01:33:06.273Z,0.00
2024-01-11T01:34:06.385Z,0.00
2024-01-11T01:35:06.191Z,0.00
2024-01-11T01:36:06.145Z,0.00
2024-01-11T01:37:06.142Z,0.00
2024-01-11T01:38:06.161Z,0.00
2024-01-11T01:39:06.155Z,0.00
2024-01-11T01:40:06.122Z,0.00
2024-01-11T01:41:06.157Z,0.00
2024-01-11T01:42:06.120Z,0.00
2024-01-11T01:43:06.102Z,0.00
2024-01-11T01:44:06.116Z,0.00
2024-01-11T01:45:06.090Z,0.00
2024-01-11T01:46:06.088Z,0.00
2024-01-11T01:47:06.176Z,0.00
2024-01-11T01:48:06.217Z,0.00
2024-01-11T01:49:06.178Z,0.00
2024-01-11T01:50:06.075Z,0.00
2024-01-11T01:51:06.064Z,0.00
2024-01-11T01:52:06.054Z,0.00
2024-01-11T01:53:06.071Z,0.00
2024-01-11T01:54:06.061Z,0.00
2024-01-11T01:55:06.034Z,0.00
2024-01-11T01:56:06.066Z,0.00
2024-01-11T01:57:06.026Z,0.00
2024-01-11T01:58:06.021Z,0.00
2024-01-11T01:59:06.058Z,0.00
2024-01-11T02:00:06.035Z,0.00
2024-01-11T02:01:07.977Z,0.00
2024-01-11T02:02:06.069Z,0.00
2024-01-11T02:03:05.998Z,0.00
2024-01-11T02:04:06.000Z,0.00
2024-01-11T02:05:06.047Z,0.00
2024-01-11T02:06:06.084Z,0.00
2024-01-11T02:07:05.968Z,0.00
2024-01-11T02:08:05.992Z,0.00
2024-01-11T02:09:05.965Z,0.00
2024-01-11T02:10:05.953Z,0.00
2024-01-11T02:11:06.033Z,0.00
2024-01-11T02:12:05.953Z,0.00
2024-01-11T02:13:08.999Z,0.00
2024-01-11T02:14:05.934Z,0.00
2024-01-11T02:15:05.979Z,0.00
2024-01-11T02:16:05.930Z,0.00
2024-01-11T02:17:05.962Z,0.00
2024-01-11T02:18:05.991Z,0.00
2024-01-11T02:19:05.978Z,0.00
2024-01-11T02:20:05.961Z,0.00
2024-01-11T02:21:05.904Z,0.00
2024-01-11T02:22:05.896Z,0.00
2024-01-11T02:23:05.946Z,0.00
2024-01-11T02:24:05.909Z,0.00
2024-01-11T02:25:05.878Z,0.00
2024-01-11T02:26:05.893Z,0.00
2024-01-11T02:27:06.001Z,0.00
2024-01-11T02:28:05.864Z,0.00
2024-01-11T02:29:05.880Z,0.00
2024-01-11T02:30:05.889Z,0.00
2024-01-11T02:31:05.932Z,0.00
2024-01-11T02:32:05.902Z,0.00
2024-01-11T02:33:06.056Z,0.00
2024-01-11T02:34:05.962Z,0.00
2024-01-11T02:35:05.842Z,0.00
2024-01-11T02:36:05.817Z,0.00
2024-01-11T02:37:05.814Z,0.00
2024-01-11T02:38:05.825Z,0.00
2024-01-11T02:39:05.808Z,0.00
2024-01-11T02:40:05.793Z,0.00
2024-01-11T02:41:05.816Z,0.00
2024-01-11T02:42:05.783Z,0.00
2024-01-11T02:43:05.782Z,0.00
2024-01-11T02:44:05.784Z,0.00
2024-01-11T02:45:05.772Z,0.00
2024-01-11T02:46:05.764Z,0.00
2024-01-11T02:47:05.811Z,0.00
2024-01-11T02:48:05.940Z,0.00
2024-01-11T02:49:05.880Z,0.00
2024-01-11T02:50:05.828Z,0.00
2024-01-11T02:51:05.772Z,0.00
2024-01-11T02:52:05.754Z,0.00
2024-01-11T02:53:05.750Z,0.00
2024-01-11T02:54:05.726Z,0.00
2024-01-11T02:55:05.721Z,0.00
2024-01-11T02:56:05.842Z,0.00
2024-01-11T02:57:05.714Z,0.00
2024-01-11T02:58:05.706Z,0.00
2024-01-11T02:59:05.750Z,0.00
2024-01-11T03:00:05.690Z,0.00
2024-01-11T03:01:05.752Z,0.00
2024-01-11T03:02:05.709Z,0.00
2024-01-11T03:03:05.756Z,0.00
2024-01-11T03:04:05.744Z,0.00
2024-01-11T03:05:05.732Z,0.00
2024-01-11T03:06:05.739Z,0.00
2024-01-11T03:07:05.648Z,0.00
2024-01-11T03:08:05.691Z,0.00
2024-01-11T03:09:05.633Z,0.00
2024-01-11T03:10:05.631Z,0.00
2024-01-11T03:11:05.684Z,0.00
2024-01-11T03:12:05.621Z,0.00
2024-01-11T03:13:05.614Z,0.00
2024-01-11T03:14:05.666Z,0.00
2024-01-11T03:15:05.614Z,0.00
2024-01-11T03:16:05.607Z,0.00
2024-01-11T03:17:05.725Z,0.00
2024-01-11T03:18:05.973Z,0.00
2024-01-11T03:19:05.663Z,0.00
2024-01-11T03:20:05.589Z,0.00
2024-01-11T03:21:05.569Z,0.00
2024-01-11T03:22:05.566Z,0.00
2024-01-11T03:23:05.573Z,0.00
2024-01-11T03:24:05.556Z,0.00
2024-01-11T03:25:05.560Z,0.00
2024-01-11T03:26:05.616Z,0.00
2024-01-11T03:27:05.536Z,0.00
2024-01-11T03:28:05.534Z,0.00
2024-01-11T03:29:05.586Z,0.00
2024-01-11T03:30:05.560Z,0.00
2024-01-11T03:31:05.544Z,0.00
2024-01-11T03:32:05.512Z,0.00
2024-01-11T03:33:05.720Z,0.00
2024-01-11T03:34:05.534Z,0.00
2024-01-11T03:35:05.559Z,0.00
2024-01-11T03:36:05.482Z,0.00
2024-01-11T03:37:05.482Z,0.00
2024-01-11T03:38:05.502Z,0.00
2024-01-11T03:39:05.471Z,0.00
2024-01-11T03:40:05.472Z,0.00
2024-01-11T03:41:05.466Z,0.00
2024-01-11T03:42:05.453Z,0.00
2024-01-11T03:43:05.455Z,0.00
2024-01-11T03:44:05.471Z,0.00
2024-01-11T03:45:05.437Z,0.00
2024-01-11T03:46:05.426Z,0.00
2024-01-11T03:47:05.430Z,0.00
2024-01-11T03:48:05.640Z,0.00
2024-01-11T03:49:05.456Z,0.00
2024-01-11T03:50:05.453Z,0.00
2024-01-11T03:51:05.404Z,0.00
2024-01-11T03:52:05.394Z,0.00
2024-01-11T03:53:05.472Z,0.00
2024-01-11T03:54:05.435Z,0.00
2024-01-11T03:55:05.385Z,0.00
2024-01-11T03:56:05.465Z,0.00
2024-01-11T03:57:05.381Z,0.00
2024-01-11T03:58:05.378Z,0.00
2024-01-11T03:59:05.381Z,0.00
2024-01-11T04:00:06.579Z,0.00
2024-01-11T04:01:05.418Z,0.00
2024-01-11T04:02:05.396Z,0.00
2024-01-11T04:03:05.374Z,0.00
2024-01-11T04:04:05.420Z,0.00
2024-01-11T04:05:05.440Z,0.00
2024-01-11T04:06:05.458Z,0.00
2024-01-11T04:07:05.343Z,0.00
2024-01-11T04:08:05.351Z,0.00
2024-01-11T04:09:05.327Z,0.00
2024-01-11T04:10:05.321Z,0.00
2024-01-11T04:11:05.538Z,0.00
2024-01-11T04:12:05.297Z,0.00
2024-01-11T04:13:05.294Z,0.00
2024-01-11T04:14:05.345Z,0.00
2024-01-11T04:15:05.290Z,0.00
2024-01-11T04:16:05.281Z,0.00
2024-01-11T04:17:05.401Z,0.00
2024-01-11T04:18:05.632Z,0.00
2024-01-11T04:19:05.397Z,0.00
2024-01-11T04:20:05.277Z,0.00
2024-01-11T04:21:05.259Z,0.00
2024-01-11T04:22:05.252Z,0.00
2024-01-11T04:23:05.292Z,0.00
2024-01-11T04:24:05.245Z,0.00
2024-01-11T04:25:05.239Z,0.00
2024-01-11T04:26:05.273Z,0.00
2024-01-11T04:27:05.229Z,0.00
2024-01-11T04:28:05.228Z,0.00
2024-01-11T04:29:05.335Z,0.00
2024-01-11T04:30:05.256Z,0.00
2024-01-11T04:31:05.208Z,0.00
2024-01-11T04:32:05.247Z,0.00
2024-01-11T04:33:05.387Z,0.00
2024-01-11T04:34:05.249Z,0.00
2024-01-11T04:35:05.224Z,0.00
2024-01-11T04:36:05.188Z,0.00
2024-01-11T04:37:05.247Z,0.00
2024-01-11T04:38:05.235Z,0.00
2024-01-11T04:39:05.176Z,0.00
2024-01-11T04:40:05.163Z,0.00
2024-01-11T04:41:05.179Z,0.00
2024-01-11T04:42:05.169Z,0.00
2024-01-11T04:43:05.158Z,0.00
2024-01-11T04:44:05.180Z,0.00
2024-01-11T04:45:05.149Z,0.00
2024-01-11T04:46:05.142Z,0.00
2024-01-11T04:47:05.210Z,0.00
2024-01-11T04:48:05.241Z,0.00
2024-01-11T04:49:05.208Z,0.00
2024-01-11T04:50:05.143Z,0.00
2024-01-11T04:51:05.122Z,0.00
2024-01-11T04:52:05.126Z,0.00
2024-01-11T04:53:05.125Z,0.00
2024-01-11T04:54:05.105Z,0.00
2024-01-11T04:55:05.106Z,0.00
2024-01-11T04:56:05.122Z,0.00
2024-01-11T04:57:05.095Z,0.00
2024-01-11T04:58:05.104Z,0.00
2024-01-11T04:59:05.140Z,0.00
2024-01-11T05:00:05.079Z,0.00
2024-01-11T05:01:05.206Z,0.00
2024-01-11T05:02:05.098Z,0.00
2024-01-11T05:03:05.068Z,0.00
2024-01-11T05:04:05.128Z,0.00
2024-01-11T05:05:05.166Z,0.00
2024-01-11T05:06:05.089Z,0.00
2024-01-11T05:07:05.058Z,0.00
2024-01-11T05:08:05.061Z,0.00
2024-01-11T05:09:05.037Z,0.00
2024-01-11T05:10:05.033Z,0.00
2024-01-11T05:11:05.057Z,0.00
2024-01-11T05:12:05.020Z,0.00
2024-01-11T05:13:05.021Z,0.00
2024-01-11T05:14:05.036Z,0.00
2024-01-11T05:15:05.020Z,0.00
2024-01-11T05:16:05.003Z,0.00
2024-01-11T05:17:05.058Z,0.00
2024-01-11T05:18:05.071Z,0.00
2024-01-11T05:19:05.061Z,0.00
2024-01-11T05:20:05.006Z,0.00
2024-01-11T05:21:04.984Z,0.00
2024-01-11T05:22:04.981Z,0.00
2024-01-11T05:23:05.009Z,0.00
2024-01-11T05:24:04.971Z,0.00
2024-01-11T05:25:04.973Z,0.00
2024-01-11T05:26:04.996Z,0.00
2024-01-11T05:27:04.963Z,0.00
2024-01-11T05:28:04.950Z,0.00
2024-01-11T05:29:04.980Z,0.00
2024-01-11T05:30:04.966Z,0.00
2024-01-11T05:31:05.025Z,0.00
2024-01-11T05:32:05.021Z,0.00
2024-01-11T05:33:05.028Z,0.00
2024-01-11T05:34:05.060Z,0.00
2024-01-11T05:35:04.968Z,0.00
2024-01-11T05:36:04.949Z,0.00
2024-01-11T05:37:04.917Z,0.00
2024-01-11T05:38:04.966Z,0.00
2024-01-11T05:39:04.913Z,0.00
2024-01-11T05:40:04.949Z,0.00
2024-01-11T05:41:04.927Z,0.00
2024-01-11T05:42:04.897Z,0.00
2024-01-11T05:43:04.910Z,0.00
2024-01-11T05:44:04.914Z,0.00
2024-01-11T05:45:04.881Z,0.00
2024-01-11T05:46:04.880Z,0.00
2024-01-11T05:47:04.934Z,0.00
2024-01-11T05:48:04.939Z,0.00
2024-01-11T05:49:04.977Z,0.00
2024-01-11T05:50:04.904Z,0.00
2024-01-11T05:51:04.863Z,0.00
2024-01-11T05:52:04.862Z,0.00
2024-01-11T05:53:04.880Z,0.00
2024-01-11T05:54:04.849Z,0.00
2024-01-11T05:55:04.867Z,0.00
2024-01-11T05:56:04.888Z,0.00
2024-01-11T05:57:04.842Z,0.00
2024-01-11T05:58:04.847Z,0.00
2024-01-11T05:59:04.879Z,0.00
2024-01-11T06:00:04.867Z,0.00
2024-01-11T06:01:04.923Z,0.00
2024-01-11T06:02:04.858Z,0.00
2024-01-11T06:03:04.832Z,0.00
2024-01-11T06:04:04.814Z,0.00
2024-01-11T06:05:04.920Z,0.00
2024-01-11T06:06:05.054Z,0.00
2024-01-11T06:07:04.799Z,0.00
2024-01-11T06:08:04.841Z,0.00
2024-01-11T06:09:04.795Z,0.00
2024-01-11T06:10:04.792Z,0.00
2024-01-11T06:11:04.800Z,0.00
2024-01-11T06:12:04.781Z,0.00
2024-01-11T06:13:04.778Z,0.00
2024-01-11T06:14:04.777Z,0.00
2024-01-11T06:15:04.789Z,0.00
2024-01-11T06:16:04.785Z,0.00
2024-01-11T06:17:04.781Z,0.00
2024-01-11T06:18:04.868Z,0.00
2024-01-11T06:19:04.787Z,0.00
2024-01-11T06:20:04.833Z,0.00
2024-01-11T06:21:04.759Z,0.00
2024-01-11T06:22:04.752Z,0.00
2024-01-11T06:23:04.750Z,0.00
2024-01-11T06:24:04.736Z,0.00
2024-01-11T06:25:04.749Z,0.00
2024-01-11T06:26:04.812Z,0.00
2024-01-11T06:27:04.738Z,0.00
2024-01-11T06:28:04.721Z,0.00
2024-01-11T06:29:04.731Z,0.00
2024-01-11T06:30:04.791Z,0.00
2024-01-11T06:31:04.888Z,0.00
2024-01-11T06:32:04.741Z,0.00
2024-01-11T06:33:04.851Z,0.00
2024-01-11T06:34:04.738Z,0.00
2024-01-11T06:35:04.807Z,0.00
2024-01-11T06:36:04.702Z,0.00
2024-01-11T06:37:04.687Z,0.00
2024-01-11T06:38:04.692Z,0.00
2024-01-11T06:39:04.680Z,0.00
2024-01-11T06:40:04.727Z,0.00
2024-01-11T06:41:04.683Z,0.00
2024-01-11T06:42:04.664Z,0.00
2024-01-11T06:43:04.666Z,0.00
2024-01-11T06:44:04.741Z,0.00
2024-01-11T06:45:04.686Z,0.00
2024-01-11T06:46:04.652Z,0.00
2024-01-11T06:47:04.662Z,0.00
2024-01-11T06:48:04.795Z,0.00
2024-01-11T06:49:04.759Z,0.00
2024-01-11T06:50:04.711Z,0.00
2024-01-11T06:51:04.772Z,0.00
2024-01-11T06:52:04.627Z,0.00
2024-01-11T06:53:04.660Z,0.00
2024-01-11T06:54:04.624Z,0.00
2024-01-11T06:55:04.623Z,0.00
2024-01-11T06:56:04.628Z,0.00
2024-01-11T06:57:04.607Z,0.00
2024-01-11T06:58:04.605Z,0.00
2024-01-11T06:59:04.642Z,0.00
2024-01-11T07:00:04.604Z,0.00
2024-01-11T07:01:04.639Z,0.00
2024-01-11T07:02:04.663Z,0.00
2024-01-11T07:03:04.584Z,0.00
2024-01-11T07:04:04.691Z,0.00
2024-01-11T07:05:04.713Z,0.00
2024-01-11T07:06:04.638Z,0.00
2024-01-11T07:07:04.573Z,0.00
2024-01-11T07:08:04.593Z,0.00
2024-01-11T07:09:04.567Z,0.00
2024-01-11T07:10:04.564Z,0.00
2024-01-11T07:11:04.576Z,0.00
2024-01-11T07:12:04.560Z,0.00
2024-01-11T07:13:04.552Z,0.00
2024-01-11T07:14:04.565Z,0.00
2024-01-11T07:15:04.556Z,0.00
2024-01-11T07:16:04.553Z,0.00
2024-01-11T07:17:04.618Z,0.00
2024-01-11T07:18:04.751Z,0.00
2024-01-11T07:19:04.680Z,0.00
2024-01-11T07:20:04.542Z,0.00
2024-01-11T07:21:04.532Z,0.00
2024-01-11T07:22:04.521Z,4.00
2024-01-11T07:23:04.597Z,4.00
2024-01-11T07:24:04.514Z,0.00
2024-01-11T07:25:04.528Z,0.00
2024-01-11T07:26:04.563Z,0.00
2024-01-11T07:27:04.512Z,0.00
2024-01-11T07:28:04.510Z,0.00
2024-01-11T07:29:04.518Z,4.00
2024-01-11T07:30:04.541Z,0.00
2024-01-11T07:31:04.529Z,0.00
2024-01-11T07:32:04.509Z,4.00
2024-01-11T07:33:04.565Z,4.00
2024-01-11T07:34:04.530Z,0.00
2024-01-11T07:35:05.540Z,0.00
2024-01-11T07:36:04.601Z,0.00
2024-01-11T07:37:04.466Z,0.00
2024-01-11T07:38:04.487Z,0.00
2024-01-11T07:39:04.457Z,4.00
2024-01-11T07:40:04.454Z,4.00
2024-01-11T07:41:04.498Z,0.00
2024-01-11T07:42:04.451Z,4.00
2024-01-11T07:43:04.444Z,0.00
2024-01-11T07:44:04.456Z,4.00
2024-01-11T07:45:04.441Z,0.00
2024-01-11T07:46:04.440Z,4.00
2024-01-11T07:47:04.479Z,4.00
2024-01-11T07:48:04.530Z,4.00
2024-01-11T07:49:04.614Z,4.00
2024-01-11T07:50:04.484Z,4.00
2024-01-11T07:51:04.416Z,4.00
2024-01-11T07:52:04.418Z,4.00
2024-01-11T07:53:04.470Z,4.00
2024-01-11T07:54:04.407Z,4.00
2024-01-11T07:55:04.406Z,4.00
2024-01-11T07:56:04.435Z,4.00
2024-01-11T07:57:04.396Z,4.00
2024-01-11T07:58:04.395Z,4.00
2024-01-11T07:59:04.393Z,4.00
2024-01-11T08:00:04.396Z,4.00
2024-01-11T08:01:04.398Z,4.00
2024-01-11T08:02:04.423Z,4.00
2024-01-11T08:03:04.488Z,4.00
2024-01-11T08:04:04.526Z,4.00
2024-01-11T08:05:04.448Z,4.00
2024-01-11T08:06:04.506Z,4.00
2024-01-11T08:07:04.359Z,4.00
2024-01-11T08:08:04.394Z,8.00
2024-01-11T08:09:04.399Z,4.00
2024-01-11T08:10:04.356Z,4.00
2024-01-11T08:11:04.385Z,4.00
2024-01-11T08:12:04.385Z,4.00
2024-01-11T08:13:04.333Z,4.00
2024-01-11T08:14:04.367Z,4.00
2024-01-11T08:15:04.333Z,4.00
2024-01-11T08:16:04.326Z,4.00
2024-01-11T08:17:04.338Z,4.00
2024-01-11T08:18:04.348Z,4.00
2024-01-11T08:19:04.340Z,4.00
2024-01-11T08:20:04.335Z,4.00
2024-01-11T08:21:04.311Z,4.00
2024-01-11T08:22:04.323Z,4.00
2024-01-11T08:23:04.331Z,4.00
2024-01-11T08:24:04.343Z,4.00
2024-01-11T08:25:04.302Z,8.00
2024-01-11T08:26:04.326Z,4.00
2024-01-11T08:27:04.281Z,4.00
2024-01-11T08:28:04.288Z,4.00
2024-01-11T08:29:04.298Z,8.00
2024-01-11T08:30:04.316Z,4.00
2024-01-11T08:31:04.302Z,4.00
2024-01-11T08:32:09.000Z,4.00
2024-01-11T08:33:04.364Z,8.00
2024-01-11T08:34:04.382Z,4.00
2024-01-11T08:35:04.333Z,4.00
2024-01-11T08:36:04.331Z,4.00
2024-01-11T08:37:04.245Z,8.00
2024-01-11T08:38:04.364Z,8.00
2024-01-11T08:39:04.238Z,4.00
2024-01-11T08:40:04.233Z,4.00
2024-01-11T08:41:04.253Z,4.00
2024-01-11T08:42:04.225Z,8.00
2024-01-11T08:43:04.302Z,8.00
2024-01-11T08:44:04.330Z,12.00
2024-01-11T08:45:04.218Z,8.00
2024-01-11T08:46:04.215Z,12.00
2024-01-11T08:47:04.237Z,8.00
2024-01-11T08:48:04.354Z,12.00
2024-01-11T08:49:04.304Z,12.00
2024-01-11T08:50:04.241Z,12.00
2024-01-11T08:51:04.245Z,16.00
2024-01-11T08:52:04.205Z,12.00
2024-01-11T08:53:04.269Z,12.00
2024-01-11T08:54:04.185Z,16.00
2024-01-11T08:55:04.180Z,16.00
2024-01-11T08:56:04.252Z,16.00
2024-01-11T08:57:04.179Z,12.00
2024-01-11T08:58:04.172Z,16.00
2024-01-11T08:59:04.178Z,16.00
2024-01-11T09:00:04.184Z,16.00
2024-01-11T09:01:04.200Z,16.00
2024-01-11T09:02:13.530Z,16.00
2024-01-11T09:03:04.168Z,20.00
2024-01-11T09:04:04.193Z,20.00
2024-01-11T09:05:04.188Z,20.00
2024-01-11T09:06:04.338Z,20.00
2024-01-11T09:07:04.208Z,20.00
2024-01-11T09:08:04.176Z,24.00
2024-01-11T09:09:04.141Z,20.00
2024-01-11T09:10:04.137Z,24.00
2024-01-11T09:11:04.168Z,24.00
2024-01-11T09:12:04.150Z,24.00
2024-01-11T09:13:04.119Z,24.00
2024-01-11T09:14:04.156Z,20.00
2024-01-11T09:15:04.133Z,24.00
2024-01-11T09:16:04.122Z,24.00
2024-01-11T09:17:04.131Z,24.00
2024-01-11T09:18:04.383Z,28.00
2024-01-11T09:19:04.188Z,32.00
2024-01-11T09:20:04.204Z,32.00
2024-01-11T09:21:04.099Z,32.00
2024-01-11T09:22:04.147Z,28.00
2024-01-11T09:23:04.118Z,24.00
2024-01-11T09:24:04.082Z,28.00
2024-01-11T09:25:04.103Z,28.00
2024-01-11T09:26:04.113Z,24.00
2024-01-11T09:27:04.071Z,24.00
2024-01-11T09:28:04.088Z,24.00
2024-01-11T09:29:04.091Z,20.00
2024-01-11T09:30:04.145Z,20.00
2024-01-11T09:31:04.158Z,20.00
2024-01-11T09:32:04.138Z,20.00
2024-01-11T09:33:04.199Z,20.00
2024-01-11T09:34:04.119Z,20.00
2024-01-11T09:35:04.118Z,20.00
2024-01-11T09:36:04.042Z,20.00
2024-01-11T09:37:04.041Z,24.00
2024-01-11T09:38:04.124Z,20.00
2024-01-11T09:39:04.092Z,24.00
2024-01-11T09:40:04.047Z,20.00
2024-01-11T09:41:04.083Z,20.00
2024-01-11T09:42:04.021Z,20.00
2024-01-11T09:43:04.014Z,20.00
2024-01-11T09:44:04.036Z,24.00
2024-01-11T09:45:04.016Z,20.00
2024-01-11T09:46:04.007Z,20.00
2024-01-11T09:47:04.116Z,20.00
2024-01-11T09:48:04.118Z,20.00
2024-01-11T09:49:04.020Z,16.00
2024-01-11T09:50:04.012Z,20.00
2024-01-11T09:51:03.990Z,20.00
2024-01-11T09:52:03.989Z,20.00
2024-01-11T09:53:04.061Z,20.00
2024-01-11T09:54:03.985Z,16.00
2024-01-11T09:55:03.993Z,16.00
2024-01-11T09:56:04.000Z,20.00
2024-01-11T09:57:03.971Z,20.00
2024-01-11T09:58:03.965Z,16.00
2024-01-11T09:59:04.005Z,20.00
2024-01-11T10:00:04.052Z,20.00
2024-01-11T10:01:04.031Z,20.00
2024-01-11T10:02:04.035Z,20.00
2024-01-11T10:03:03.952Z,16.00
2024-01-11T10:04:04.009Z,20.00
2024-01-11T10:05:03.989Z,20.00
2024-01-11T10:06:04.007Z,16.00
2024-01-11T10:07:03.990Z,20.00
2024-01-11T10:08:03.988Z,16.00
2024-01-11T10:09:03.943Z,20.00
2024-01-11T10:10:03.933Z,20.00
2024-01-11T10:11:03.946Z,20.00
2024-01-11T10:12:03.925Z,24.00
2024-01-11T10:13:03.935Z,24.00
2024-01-11T10:14:03.989Z,20.00
2024-01-11T10:15:03.921Z,24.00
2024-01-11T10:16:03.911Z,24.00
2024-01-11T10:17:03.975Z,24.00
2024-01-11T10:18:04.136Z,20.00
2024-01-11T10:19:04.184Z,24.00
2024-01-11T10:20:04.177Z,20.00
2024-01-11T10:21:04.037Z,24.00
2024-01-11T10:22:03.893Z,24.00
2024-01-11T10:23:03.917Z,28.00
2024-01-11T10:24:03.889Z,28.00
2024-01-11T10:25:03.885Z,28.00
2024-01-11T10:26:03.957Z,28.00
2024-01-11T10:27:03.879Z,28.00
2024-01-11T10:28:03.882Z,28.00
2024-01-11T10:29:03.982Z,28.00
2024-01-11T10:30:03.929Z,28.00
2024-01-11T10:31:03.876Z,32.00
2024-01-11T10:32:03.960Z,32.00
2024-01-11T10:33:04.030Z,36.00
2024-01-11T10:34:03.964Z,32.00
2024-01-11T10:35:04.849Z,24.00
2024-01-11T10:36:03.865Z,24.00
2024-01-11T10:37:03.865Z,24.00
2024-01-11T10:38:03.903Z,28.00
2024-01-11T10:39:03.881Z,28.00
2024-01-11T10:40:03.844Z,28.00
2024-01-11T10:41:03.903Z,24.00
2024-01-11T10:42:04.291Z,24.00
2024-01-11T10:43:03.836Z,24.00
2024-01-11T10:44:03.840Z,28.00
2024-01-11T10:45:03.823Z,24.00
2024-01-11T10:46:03.829Z,24.00
2024-01-11T10:47:03.841Z,24.00
2024-01-11T10:48:04.783Z,24.00
2024-01-11T10:49:03.968Z,28.00
2024-01-11T10:50:03.914Z,28.00
2024-01-11T10:51:03.814Z,24.00
2024-01-11T10:52:03.811Z,24.00
2024-01-11T10:53:03.832Z,24.00
2024-01-11T10:54:03.826Z,24.00
2024-01-11T10:55:03.837Z,20.00
2024-01-11T10:56:03.845Z,24.00
2024-01-11T10:57:03.797Z,24.00
2024-01-11T10:58:03.821Z,20.00
2024-01-11T10:59:03.818Z,20.00
2024-01-11T11:00:03.794Z,24.00
2024-01-11T11:01:03.865Z,24.00
2024-01-11T11:02:03.820Z,24.00
2024-01-11T11:03:04.081Z,20.00
2024-01-11T11:04:03.780Z,20.00
2024-01-11T11:05:03.908Z,20.00
2024-01-11T11:06:03.844Z,20.00
2024-01-11T11:07:03.797Z,20.00
2024-01-11T11:08:03.841Z,20.00
2024-01-11T11:09:03.761Z,16.00
2024-01-11T11:10:03.764Z,20.00
2024-01-11T11:11:03.812Z,20.00
2024-01-11T11:12:03.758Z,16.00
2024-01-11T11:13:03.753Z,16.00
2024-01-11T11:14:03.780Z,16.00
2024-01-11T11:15:03.747Z,16.00
2024-01-11T11:16:03.745Z,20.00
2024-01-11T11:17:03.813Z,20.00
2024-01-11T11:18:03.805Z,20.00
2024-01-11T11:19:03.740Z,16.00
2024-01-11T11:20:03.763Z,12.00
2024-01-11T11:21:03.745Z,16.00
2024-01-11T11:22:03.734Z,16.00
2024-01-11T11:23:03.761Z,16.00
2024-01-11T11:24:03.726Z,12.00
2024-01-11T11:25:03.721Z,12.00
2024-01-11T11:26:03.723Z,16.00
2024-01-11T11:27:03.712Z,16.00
2024-01-11T11:28:03.713Z,12.00
2024-01-11T11:29:04.648Z,12.00
2024-01-11T11:30:03.723Z,12.00
2024-01-11T11:31:03.726Z,16.00
2024-01-11T11:32:03.728Z,12.00
2024-01-11T11:33:03.805Z,8.00
2024-01-11T11:34:04.112Z,12.00
2024-01-11T11:35:03.711Z,16.00
2024-01-11T11:36:03.707Z,16.00
2024-01-11T11:37:03.690Z,8.00
2024-01-11T11:38:03.720Z,16.00
2024-01-11T11:39:03.690Z,12.00
2024-01-11T11:40:03.701Z,8.00
2024-01-11T11:41:03.744Z,8.00
2024-01-11T11:42:03.685Z,8.00
2024-01-11T11:43:03.679Z,8.00
2024-01-11T11:44:03.692Z,8.00
2024-01-11T11:45:03.680Z,12.00
2024-01-11T11:46:04.180Z,16.00
2024-01-11T11:47:03.711Z,16.00
2024-01-11T11:48:03.770Z,20.00
2024-01-11T11:49:03.817Z,24.00
2024-01-11T11:50:03.662Z,20.00
2024-01-11T11:51:03.671Z,20.00
2024-01-11T11:52:03.660Z,20.00
2024-01-11T11:53:03.692Z,20.00
2024-01-11T11:54:03.690Z,20.00
2024-01-11T11:55:03.656Z,12.00
2024-01-11T11:56:03.723Z,8.00
2024-01-11T11:57:03.668Z,12.00
2024-01-11T11:58:03.664Z,8.00
2024-01-11T11:59:03.666Z,8.00
2024-01-11T12:00:03.666Z,8.00
2024-01-11T12:01:03.646Z,4.00
2024-01-11T12:02:03.700Z,8.00
2024-01-11T12:03:03.716Z,8.00
2024-01-11T12:04:03.831Z,12.00
2024-01-11T12:05:03.779Z,16.00
2024-01-11T12:06:03.754Z,12.00
2024-01-11T12:07:03.647Z,12.00
2024-01-11T12:08:03.667Z,12.00
2024-01-11T12:09:03.644Z,12.00
2024-01-11T12:10:03.647Z,16.00
2024-01-11T12:11:03.660Z,16.00
2024-01-11T12:13:03.631Z,12.00
2024-01-11T12:14:03.671Z,12.00
2024-01-11T12:15:03.615Z,16.00
2024-01-11T12:16:03.598Z,16.00
2024-01-11T12:17:03.676Z,12.00
2024-01-11T12:18:03.755Z,12.00
2024-01-11T12:19:03.711Z,16.00
2024-01-11T12:20:03.619Z,12.00
2024-01-11T12:21:03.600Z,12.00
2024-01-11T12:22:03.598Z,12.00
2024-01-11T12:23:03.603Z,8.00
2024-01-11T12:24:03.612Z,12.00
2024-01-11T12:25:03.579Z,8.00
2024-01-11T12:26:03.774Z,12.00
2024-01-11T12:27:03.609Z,12.00
2024-01-11T12:28:03.569Z,12.00
2024-01-11T12:29:03.696Z,12.00
2024-01-11T12:30:03.771Z,8.00
2024-01-11T12:31:03.632Z,12.00
2024-01-11T12:32:03.605Z,8.00
2024-01-11T12:33:03.836Z,12.00
2024-01-11T12:34:03.700Z,12.00
2024-01-11T12:35:03.609Z,12.00
2024-01-11T12:36:03.565Z,12.00
2024-01-11T12:37:03.562Z,12.00
2024-01-11T12:38:03.572Z,12.00
2024-01-11T12:39:03.666Z,12.00
2024-01-11T12:40:03.549Z,8.00
2024-01-11T12:41:03.587Z,8.00
2024-01-11T12:42:03.546Z,8.00
2024-01-11T12:43:03.559Z,12.00
2024-01-11T12:44:03.576Z,12.00
2024-01-11T12:45:03.581Z,12.00
2024-01-11T12:46:03.548Z,12.00
2024-01-11T12:47:03.572Z,12.00
2024-01-11T12:48:03.651Z,12.00
2024-01-11T12:49:03.692Z,12.00
2024-01-11T12:50:03.582Z,12.00
2024-01-11T12:51:11.036Z,12.00
2024-01-11T12:52:03.525Z,12.00
2024-01-11T12:53:03.562Z,12.00
2024-01-11T12:54:03.527Z,8.00
2024-01-11T12:55:03.527Z,12.00
2024-01-11T12:56:03.643Z,12.00
2024-01-11T12:57:03.731Z,12.00
2024-01-11T12:58:03.522Z,12.00
2024-01-11T12:59:03.540Z,16.00
2024-01-11T13:00:03.513Z,12.00
2024-01-11T13:01:03.550Z,16.00
2024-01-11T13:02:03.596Z,12.00
2024-01-11T13:03:03.505Z,16.00
2024-01-11T13:04:03.522Z,12.00
2024-01-11T13:05:03.543Z,12.00
2024-01-11T13:06:03.748Z,12.00
2024-01-11T13:07:03.492Z,8.00
2024-01-11T13:08:03.541Z,8.00
2024-01-11T13:09:03.487Z,12.00
2024-01-11T13:10:03.488Z,12.00
2024-01-11T13:11:03.532Z,12.00